sensor_id;sensor_type;location;lat;lon;timestamp;P1;durP1;ratioP1;P2;durP2;ratioP2
79204;SDS011;68632;47.512;19.104;2023-08-20T00:00:41;17.17;;;15.38;;
79204;SDS011;68632;47.512;19.104;2023-08-20T00:01:45;18.45;;;16.52;;
79204;SDS011;68632;47.512;19.104;2023-08-20T00:02:47;19.25;;;16.30;;
79204;SDS011;68632;47.512;19.104;2023-08-20T00:03:54;21.80;;;17.67;;
79204;SDS011;68632;47.512;19.104;2023-08-20T00:04:56;21.77;;;16.25;;
79204;SDS011;68632;47.512;19.104;2023-08-20T00:05:59;18.88;;;15.98;;
79204;SDS011;68632;47.512;19.104;2023-08-20T00:07:01;19.08;;;16.70;;
79204;SDS011;68632;47.512;19.104;2023-08-20T00:08:04;20.08;;;16.58;;
79204;SDS011;68632;47.512;19.104;2023-08-20T00:09:06;18.30;;;15.95;;
79204;SDS011;68632;47.512;19.104;2023-08-20T00:10:10;20.83;;;16.40;;
79204;SDS011;68632;47.512;19.104;2023-08-20T00:11:12;18.23;;;16.20;;
79204;SDS011;68632;47.512;19.104;2023-08-20T00:12:15;21.23;;;16.27;;
79204;SDS011;68632;47.512;19.104;2023-08-20T00:13:17;20.70;;;16.58;;
79204;SDS011;68632;47.512;19.104;2023-08-20T00:14:19;21.08;;;18.67;;
79204;SDS011;68632;47.512;19.104;2023-08-20T00:15:21;20.25;;;17.02;;
79204;SDS011;68632;47.512;19.104;2023-08-20T00:16:28;19.30;;;16.98;;
79204;SDS011;68632;47.512;19.104;2023-08-20T00:17:31;21.40;;;18.15;;
79204;SDS011;68632;47.512;19.104;2023-08-20T00:18:34;18.75;;;16.60;;
79204;SDS011;68632;47.512;19.104;2023-08-20T00:19:40;19.48;;;16.67;;
79204;SDS011;68632;47.512;19.104;2023-08-20T00:20:42;20.40;;;18.33;;
79204;SDS011;68632;47.512;19.104;2023-08-20T00:21:47;19.02;;;17.02;;
79204;SDS011;68632;47.512;19.104;2023-08-20T00:22:49;20.35;;;17.48;;
79204;SDS011;68632;47.512;19.104;2023-08-20T00:23:52;19.45;;;17.20;;
79204;SDS011;68632;47.512;19.104;2023-08-20T00:24:54;17.90;;;15.95;;
79204;SDS011;68632;47.512;19.104;2023-08-20T00:25:57;19.25;;;16.80;;
79204;SDS011;68632;47.512;19.104;2023-08-20T00:26:59;20.05;;;16.48;;
79204;SDS011;68632;47.512;19.104;2023-08-20T00:28:01;20.95;;;16.45;;
79204;SDS011;68632;47.512;19.104;2023-08-20T00:29:04;20.88;;;15.55;;
79204;SDS011;68632;47.512;19.104;2023-08-20T00:30:07;18.15;;;16.23;;
79204;SDS011;68632;47.512;19.104;2023-08-20T00:31:10;17.33;;;15.35;;
79204;SDS011;68632;47.512;19.104;2023-08-20T00:32:14;20.77;;;15.68;;
79204;SDS011;68632;47.512;19.104;2023-08-20T00:33:16;19.38;;;15.93;;
79204;SDS011;68632;47.512;19.104;2023-08-20T00:34:19;22.40;;;16.55;;
79204;SDS011;68632;47.512;19.104;2023-08-20T00:35:21;17.27;;;15.45;;
79204;SDS011;68632;47.512;19.104;2023-08-20T00:36:23;18.30;;;16.40;;
79204;SDS011;68632;47.512;19.104;2023-08-20T00:37:26;18.65;;;16.67;;
79204;SDS011;68632;47.512;19.104;2023-08-20T00:38:28;21.45;;;16.83;;
79204;SDS011;68632;47.512;19.104;2023-08-20T00:39:30;17.92;;;16.02;;
79204;SDS011;68632;47.512;19.104;2023-08-20T00:40:32;17.90;;;15.45;;
79204;SDS011;68632;47.512;19.104;2023-08-20T00:41:34;20.00;;;16.67;;
79204;SDS011;68632;47.512;19.104;2023-08-20T00:42:36;20.80;;;18.13;;
79204;SDS011;68632;47.512;19.104;2023-08-20T00:43:39;20.75;;;16.88;;
79204;SDS011;68632;47.512;19.104;2023-08-20T00:44:42;18.30;;;16.50;;
79204;SDS011;68632;47.512;19.104;2023-08-20T00:46:48;18.50;;;16.45;;
79204;SDS011;68632;47.512;19.104;2023-08-20T00:47:50;17.85;;;15.25;;
79204;SDS011;68632;47.512;19.104;2023-08-20T00:48:53;20.25;;;16.50;;
79204;SDS011;68632;47.512;19.104;2023-08-20T00:49:55;16.73;;;15.02;;
79204;SDS011;68632;47.512;19.104;2023-08-20T00:50:58;18.23;;;15.60;;
79204;SDS011;68632;47.512;19.104;2023-08-20T00:52:00;17.73;;;15.93;;
79204;SDS011;68632;47.512;19.104;2023-08-20T00:53:02;18.95;;;16.70;;
79204;SDS011;68632;47.512;19.104;2023-08-20T00:54:05;18.85;;;15.65;;
79204;SDS011;68632;47.512;19.104;2023-08-20T00:55:10;17.80;;;15.48;;
79204;SDS011;68632;47.512;19.104;2023-08-20T00:56:13;19.30;;;15.63;;
79204;SDS011;68632;47.512;19.104;2023-08-20T00:57:17;18.20;;;15.82;;
79204;SDS011;68632;47.512;19.104;2023-08-20T00:58:20;18.15;;;15.63;;
79204;SDS011;68632;47.512;19.104;2023-08-20T00:59:22;21.25;;;15.30;;
79204;SDS011;68632;47.512;19.104;2023-08-20T01:00:24;21.48;;;16.52;;
79204;SDS011;68632;47.512;19.104;2023-08-20T01:01:27;20.67;;;16.25;;
79204;SDS011;68632;47.512;19.104;2023-08-20T01:02:29;18.67;;;16.75;;
79204;SDS011;68632;47.512;19.104;2023-08-20T01:03:31;20.90;;;16.48;;
79204;SDS011;68632;47.512;19.104;2023-08-20T01:04:33;18.33;;;16.17;;
79204;SDS011;68632;47.512;19.104;2023-08-20T01:05:38;21.70;;;15.77;;
79204;SDS011;68632;47.512;19.104;2023-08-20T01:07:54;18.88;;;16.88;;
79204;SDS011;68632;47.512;19.104;2023-08-20T01:11:58;20.13;;;17.95;;
79204;SDS011;68632;47.512;19.104;2023-08-20T01:13:01;19.48;;;16.35;;
79204;SDS011;68632;47.512;19.104;2023-08-20T01:14:13;20.35;;;16.38;;
79204;SDS011;68632;47.512;19.104;2023-08-20T01:15:17;20.27;;;17.33;;
79204;SDS011;68632;47.512;19.104;2023-08-20T01:16:19;18.77;;;16.25;;
79204;SDS011;68632;47.512;19.104;2023-08-20T01:17:21;16.60;;;14.90;;
79204;SDS011;68632;47.512;19.104;2023-08-20T01:18:23;24.20;;;17.02;;
79204;SDS011;68632;47.512;19.104;2023-08-20T01:19:26;17.58;;;15.05;;
79204;SDS011;68632;47.512;19.104;2023-08-20T01:20:30;17.65;;;15.80;;
79204;SDS011;68632;47.512;19.104;2023-08-20T01:21:38;17.23;;;15.38;;
79204;SDS011;68632;47.512;19.104;2023-08-20T01:22:48;17.65;;;15.70;;
79204;SDS011;68632;47.512;19.104;2023-08-20T01:25:24;19.88;;;15.50;;
79204;SDS011;68632;47.512;19.104;2023-08-20T01:29:21;18.25;;;16.35;;
79204;SDS011;68632;47.512;19.104;2023-08-20T01:30:24;25.10;;;18.50;;
79204;SDS011;68632;47.512;19.104;2023-08-20T01:31:26;18.65;;;16.63;;
79204;SDS011;68632;47.512;19.104;2023-08-20T01:32:29;21.35;;;16.67;;
79204;SDS011;68632;47.512;19.104;2023-08-20T01:33:31;20.70;;;17.38;;
79204;SDS011;68632;47.512;19.104;2023-08-20T01:34:34;20.83;;;16.70;;
79204;SDS011;68632;47.512;19.104;2023-08-20T01:35:36;19.77;;;16.85;;
79204;SDS011;68632;47.512;19.104;2023-08-20T01:36:38;20.48;;;16.65;;
79204;SDS011;68632;47.512;19.104;2023-08-20T01:37:40;20.45;;;17.25;;
79204;SDS011;68632;47.512;19.104;2023-08-20T01:38:43;21.05;;;17.40;;
79204;SDS011;68632;47.512;19.104;2023-08-20T01:39:45;19.55;;;17.52;;
79204;SDS011;68632;47.512;19.104;2023-08-20T01:40:47;20.02;;;17.20;;
79204;SDS011;68632;47.512;19.104;2023-08-20T01:41:50;23.00;;;18.15;;
79204;SDS011;68632;47.512;19.104;2023-08-20T01:42:52;21.70;;;19.48;;
79204;SDS011;68632;47.512;19.104;2023-08-20T01:43:54;20.95;;;18.10;;
79204;SDS011;68632;47.512;19.104;2023-08-20T01:44:56;21.98;;;16.40;;
79204;SDS011;68632;47.512;19.104;2023-08-20T01:45:58;19.98;;;16.92;;
79204;SDS011;68632;47.512;19.104;2023-08-20T01:47:01;20.75;;;17.27;;
79204;SDS011;68632;47.512;19.104;2023-08-20T01:48:03;21.23;;;15.95;;
79204;SDS011;68632;47.512;19.104;2023-08-20T01:49:05;22.10;;;17.23;;
79204;SDS011;68632;47.512;19.104;2023-08-20T01:50:08;19.27;;;16.13;;
79204;SDS011;68632;47.512;19.104;2023-08-20T01:51:10;19.27;;;17.35;;
79204;SDS011;68632;47.512;19.104;2023-08-20T01:52:13;19.83;;;17.83;;
79204;SDS011;68632;47.512;19.104;2023-08-20T01:53:15;22.48;;;16.02;;
79204;SDS011;68632;47.512;19.104;2023-08-20T01:54:17;20.45;;;15.77;;
79204;SDS011;68632;47.512;19.104;2023-08-20T01:55:19;23.63;;;17.55;;
79204;SDS011;68632;47.512;19.104;2023-08-20T01:56:21;22.35;;;17.25;;
79204;SDS011;68632;47.512;19.104;2023-08-20T01:57:23;21.55;;;16.55;;
79204;SDS011;68632;47.512;19.104;2023-08-20T01:58:25;19.77;;;16.00;;
79204;SDS011;68632;47.512;19.104;2023-08-20T01:59:28;19.13;;;16.88;;
79204;SDS011;68632;47.512;19.104;2023-08-20T02:00:30;27.83;;;20.77;;
79204;SDS011;68632;47.512;19.104;2023-08-20T02:01:32;21.02;;;18.80;;
79204;SDS011;68632;47.512;19.104;2023-08-20T02:02:34;19.35;;;16.58;;
79204;SDS011;68632;47.512;19.104;2023-08-20T02:03:37;19.73;;;17.52;;
79204;SDS011;68632;47.512;19.104;2023-08-20T02:04:40;20.38;;;18.27;;
79204;SDS011;68632;47.512;19.104;2023-08-20T02:05:42;18.10;;;16.13;;
79204;SDS011;68632;47.512;19.104;2023-08-20T02:06:44;21.33;;;17.27;;
79204;SDS011;68632;47.512;19.104;2023-08-20T02:07:46;19.85;;;17.70;;
79204;SDS011;68632;47.512;19.104;2023-08-20T02:08:48;25.05;;;16.80;;
79204;SDS011;68632;47.512;19.104;2023-08-20T02:09:50;18.30;;;16.40;;
79204;SDS011;68632;47.512;19.104;2023-08-20T02:10:59;21.23;;;16.73;;
79204;SDS011;68632;47.512;19.104;2023-08-20T02:12:05;23.63;;;17.70;;
79204;SDS011;68632;47.512;19.104;2023-08-20T02:13:07;22.33;;;16.33;;
79204;SDS011;68632;47.512;19.104;2023-08-20T02:14:09;20.38;;;16.75;;
79204;SDS011;68632;47.512;19.104;2023-08-20T02:15:11;19.58;;;17.38;;
79204;SDS011;68632;47.512;19.104;2023-08-20T02:16:14;19.50;;;17.38;;
79204;SDS011;68632;47.512;19.104;2023-08-20T02:17:18;22.48;;;17.85;;
79204;SDS011;68632;47.512;19.104;2023-08-20T02:18:20;19.23;;;17.13;;
79204;SDS011;68632;47.512;19.104;2023-08-20T02:19:22;19.88;;;17.20;;
79204;SDS011;68632;47.512;19.104;2023-08-20T02:20:26;24.23;;;19.38;;
79204;SDS011;68632;47.512;19.104;2023-08-20T02:21:28;22.90;;;17.30;;
79204;SDS011;68632;47.512;19.104;2023-08-20T02:22:31;20.90;;;17.38;;
79204;SDS011;68632;47.512;19.104;2023-08-20T02:23:33;21.80;;;16.65;;
79204;SDS011;68632;47.512;19.104;2023-08-20T02:24:35;19.63;;;17.48;;
79204;SDS011;68632;47.512;19.104;2023-08-20T02:25:37;19.50;;;17.40;;
79204;SDS011;68632;47.512;19.104;2023-08-20T02:26:39;20.23;;;17.77;;
79204;SDS011;68632;47.512;19.104;2023-08-20T02:27:42;20.70;;;17.52;;
79204;SDS011;68632;47.512;19.104;2023-08-20T02:28:44;20.55;;;18.30;;
79204;SDS011;68632;47.512;19.104;2023-08-20T02:29:46;21.40;;;18.88;;
79204;SDS011;68632;47.512;19.104;2023-08-20T02:30:48;22.15;;;17.75;;
79204;SDS011;68632;47.512;19.104;2023-08-20T02:31:51;20.45;;;18.27;;
79204;SDS011;68632;47.512;19.104;2023-08-20T02:32:53;20.95;;;17.33;;
79204;SDS011;68632;47.512;19.104;2023-08-20T02:33:55;21.92;;;18.30;;
79204;SDS011;68632;47.512;19.104;2023-08-20T02:34:57;24.27;;;20.13;;
79204;SDS011;68632;47.512;19.104;2023-08-20T02:36:00;21.52;;;19.10;;
79204;SDS011;68632;47.512;19.104;2023-08-20T02:38:06;22.48;;;18.52;;
79204;SDS011;68632;47.512;19.104;2023-08-20T02:39:08;21.23;;;19.02;;
79204;SDS011;68632;47.512;19.104;2023-08-20T02:40:11;20.35;;;17.92;;
79204;SDS011;68632;47.512;19.104;2023-08-20T02:41:15;20.00;;;17.90;;
79204;SDS011;68632;47.512;19.104;2023-08-20T02:42:17;23.25;;;18.73;;
79204;SDS011;68632;47.512;19.104;2023-08-20T02:43:19;20.73;;;18.17;;
79204;SDS011;68632;47.512;19.104;2023-08-20T02:44:21;20.77;;;17.85;;
79204;SDS011;68632;47.512;19.104;2023-08-20T02:45:24;21.45;;;18.33;;
79204;SDS011;68632;47.512;19.104;2023-08-20T02:46:26;25.17;;;19.02;;
79204;SDS011;68632;47.512;19.104;2023-08-20T02:47:28;26.38;;;18.27;;
79204;SDS011;68632;47.512;19.104;2023-08-20T02:48:30;19.38;;;17.27;;
79204;SDS011;68632;47.512;19.104;2023-08-20T02:49:32;21.48;;;18.70;;
79204;SDS011;68632;47.512;19.104;2023-08-20T02:50:35;21.85;;;16.95;;
79204;SDS011;68632;47.512;19.104;2023-08-20T02:51:37;20.70;;;18.48;;
79204;SDS011;68632;47.512;19.104;2023-08-20T02:52:40;19.02;;;16.95;;
79204;SDS011;68632;47.512;19.104;2023-08-20T02:53:45;20.33;;;17.40;;
79204;SDS011;68632;47.512;19.104;2023-08-20T02:54:47;21.60;;;16.85;;
79204;SDS011;68632;47.512;19.104;2023-08-20T02:55:49;23.15;;;17.50;;
79204;SDS011;68632;47.512;19.104;2023-08-20T02:56:51;18.85;;;16.02;;
79204;SDS011;68632;47.512;19.104;2023-08-20T02:57:53;19.95;;;16.95;;
79204;SDS011;68632;47.512;19.104;2023-08-20T02:58:55;19.38;;;17.25;;
79204;SDS011;68632;47.512;19.104;2023-08-20T02:59:58;23.65;;;17.38;;
79204;SDS011;68632;47.512;19.104;2023-08-20T03:01:00;19.88;;;17.70;;
79204;SDS011;68632;47.512;19.104;2023-08-20T03:02:02;20.17;;;16.92;;
79204;SDS011;68632;47.512;19.104;2023-08-20T03:03:05;19.65;;;17.05;;
79204;SDS011;68632;47.512;19.104;2023-08-20T03:05:12;20.63;;;16.33;;
79204;SDS011;68632;47.512;19.104;2023-08-20T03:06:14;20.23;;;17.38;;
79204;SDS011;68632;47.512;19.104;2023-08-20T03:07:16;20.52;;;18.33;;
79204;SDS011;68632;47.512;19.104;2023-08-20T03:08:18;20.98;;;17.42;;
79204;SDS011;68632;47.512;19.104;2023-08-20T03:09:21;20.30;;;17.00;;
79204;SDS011;68632;47.512;19.104;2023-08-20T03:10:23;21.73;;;18.23;;
79204;SDS011;68632;47.512;19.104;2023-08-20T03:11:25;20.42;;;18.25;;
79204;SDS011;68632;47.512;19.104;2023-08-20T03:12:27;20.13;;;17.15;;
79204;SDS011;68632;47.512;19.104;2023-08-20T03:13:30;22.88;;;19.27;;
79204;SDS011;68632;47.512;19.104;2023-08-20T03:14:32;22.67;;;17.77;;
79204;SDS011;68632;47.512;19.104;2023-08-20T03:15:34;20.15;;;18.02;;
79204;SDS011;68632;47.512;19.104;2023-08-20T03:16:36;24.92;;;18.30;;
79204;SDS011;68632;47.512;19.104;2023-08-20T03:17:38;21.23;;;17.90;;
79204;SDS011;68632;47.512;19.104;2023-08-20T03:18:41;19.83;;;17.27;;
79204;SDS011;68632;47.512;19.104;2023-08-20T03:20:01;20.77;;;18.65;;
79204;SDS011;68632;47.512;19.104;2023-08-20T03:21:07;20.63;;;18.52;;
79204;SDS011;68632;47.512;19.104;2023-08-20T03:22:09;19.40;;;17.05;;
79204;SDS011;68632;47.512;19.104;2023-08-20T03:23:12;23.23;;;18.23;;
79204;SDS011;68632;47.512;19.104;2023-08-20T03:24:14;21.25;;;18.08;;
79204;SDS011;68632;47.512;19.104;2023-08-20T03:25:16;19.35;;;17.30;;
79204;SDS011;68632;47.512;19.104;2023-08-20T03:26:18;20.23;;;17.08;;
79204;SDS011;68632;47.512;19.104;2023-08-20T03:27:20;19.30;;;17.20;;
79204;SDS011;68632;47.512;19.104;2023-08-20T03:28:22;20.42;;;16.70;;
79204;SDS011;68632;47.512;19.104;2023-08-20T03:29:25;22.95;;;18.08;;
79204;SDS011;68632;47.512;19.104;2023-08-20T03:30:27;19.38;;;17.27;;
79204;SDS011;68632;47.512;19.104;2023-08-20T03:31:29;20.63;;;17.65;;
79204;SDS011;68632;47.512;19.104;2023-08-20T03:32:31;20.73;;;17.63;;
79204;SDS011;68632;47.512;19.104;2023-08-20T03:33:34;27.17;;;19.20;;
79204;SDS011;68632;47.512;19.104;2023-08-20T03:34:36;21.27;;;18.63;;
79204;SDS011;68632;47.512;19.104;2023-08-20T03:35:38;21.52;;;17.58;;
79204;SDS011;68632;47.512;19.104;2023-08-20T03:36:40;18.88;;;16.80;;
79204;SDS011;68632;47.512;19.104;2023-08-20T03:37:43;20.73;;;17.65;;
79204;SDS011;68632;47.512;19.104;2023-08-20T03:38:45;23.00;;;18.08;;
79204;SDS011;68632;47.512;19.104;2023-08-20T03:39:47;22.05;;;17.02;;
79204;SDS011;68632;47.512;19.104;2023-08-20T03:40:49;19.17;;;17.08;;
79204;SDS011;68632;47.512;19.104;2023-08-20T03:41:52;20.38;;;17.83;;
79204;SDS011;68632;47.512;19.104;2023-08-20T03:42:54;22.17;;;17.67;;
79204;SDS011;68632;47.512;19.104;2023-08-20T03:43:56;22.23;;;18.00;;
79204;SDS011;68632;47.512;19.104;2023-08-20T03:44:59;20.15;;;17.35;;
79204;SDS011;68632;47.512;19.104;2023-08-20T03:46:01;22.35;;;17.52;;
79204;SDS011;68632;47.512;19.104;2023-08-20T03:47:04;20.45;;;16.58;;
79204;SDS011;68632;47.512;19.104;2023-08-20T03:48:10;20.67;;;16.65;;
79204;SDS011;68632;47.512;19.104;2023-08-20T03:49:12;22.05;;;18.45;;
79204;SDS011;68632;47.512;19.104;2023-08-20T03:50:14;20.55;;;18.30;;
79204;SDS011;68632;47.512;19.104;2023-08-20T03:51:17;18.75;;;16.75;;
79204;SDS011;68632;47.512;19.104;2023-08-20T03:52:19;21.02;;;18.75;;
79204;SDS011;68632;47.512;19.104;2023-08-20T03:53:21;22.05;;;17.20;;
79204;SDS011;68632;47.512;19.104;2023-08-20T03:54:23;19.10;;;16.95;;
79204;SDS011;68632;47.512;19.104;2023-08-20T03:55:25;21.80;;;18.00;;
79204;SDS011;68632;47.512;19.104;2023-08-20T03:56:28;19.35;;;16.30;;
79204;SDS011;68632;47.512;19.104;2023-08-20T03:57:30;19.65;;;17.55;;
79204;SDS011;68632;47.512;19.104;2023-08-20T03:58:32;19.75;;;17.60;;
79204;SDS011;68632;47.512;19.104;2023-08-20T03:59:34;22.25;;;18.63;;
79204;SDS011;68632;47.512;19.104;2023-08-20T04:00:36;21.20;;;17.20;;
79204;SDS011;68632;47.512;19.104;2023-08-20T04:01:38;20.15;;;17.65;;
79204;SDS011;68632;47.512;19.104;2023-08-20T04:02:41;20.67;;;17.60;;
79204;SDS011;68632;47.512;19.104;2023-08-20T04:03:43;19.33;;;17.23;;
79204;SDS011;68632;47.512;19.104;2023-08-20T04:04:45;20.25;;;18.02;;
79204;SDS011;68632;47.512;19.104;2023-08-20T04:05:49;20.52;;;17.25;;
79204;SDS011;68632;47.512;19.104;2023-08-20T04:06:51;23.02;;;19.67;;
79204;SDS011;68632;47.512;19.104;2023-08-20T04:07:53;21.08;;;18.27;;
79204;SDS011;68632;47.512;19.104;2023-08-20T04:08:55;24.15;;;18.70;;
79204;SDS011;68632;47.512;19.104;2023-08-20T04:09:57;21.13;;;18.85;;
79204;SDS011;68632;47.512;19.104;2023-08-20T04:11:00;20.05;;;16.98;;
79204;SDS011;68632;47.512;19.104;2023-08-20T04:12:03;20.23;;;18.02;;
79204;SDS011;68632;47.512;19.104;2023-08-20T04:13:06;20.83;;;17.77;;
79204;SDS011;68632;47.512;19.104;2023-08-20T04:14:08;19.25;;;17.25;;
79204;SDS011;68632;47.512;19.104;2023-08-20T04:15:10;21.33;;;18.30;;
79204;SDS011;68632;47.512;19.104;2023-08-20T04:16:13;23.20;;;18.38;;
79204;SDS011;68632;47.512;19.104;2023-08-20T04:17:15;25.00;;;17.88;;
79204;SDS011;68632;47.512;19.104;2023-08-20T04:18:17;20.48;;;17.20;;
79204;SDS011;68632;47.512;19.104;2023-08-20T04:19:20;22.17;;;19.00;;
79204;SDS011;68632;47.512;19.104;2023-08-20T04:20:22;19.73;;;17.17;;
79204;SDS011;68632;47.512;19.104;2023-08-20T04:21:24;20.50;;;18.38;;
79204;SDS011;68632;47.512;19.104;2023-08-20T04:22:27;22.65;;;18.30;;
79204;SDS011;68632;47.512;19.104;2023-08-20T04:23:32;20.90;;;17.13;;
79204;SDS011;68632;47.512;19.104;2023-08-20T04:24:34;18.50;;;16.58;;
79204;SDS011;68632;47.512;19.104;2023-08-20T04:25:36;19.92;;;17.48;;
79204;SDS011;68632;47.512;19.104;2023-08-20T04:26:38;19.33;;;16.95;;
79204;SDS011;68632;47.512;19.104;2023-08-20T04:27:40;21.05;;;18.48;;
79204;SDS011;68632;47.512;19.104;2023-08-20T04:28:43;21.60;;;16.90;;
79204;SDS011;68632;47.512;19.104;2023-08-20T04:29:45;41.85;;;33.88;;
79204;SDS011;68632;47.512;19.104;2023-08-20T04:30:47;24.55;;;20.02;;
79204;SDS011;68632;47.512;19.104;2023-08-20T04:31:50;19.35;;;16.98;;
79204;SDS011;68632;47.512;19.104;2023-08-20T04:32:52;20.60;;;17.85;;
79204;SDS011;68632;47.512;19.104;2023-08-20T04:33:54;20.65;;;18.00;;
79204;SDS011;68632;47.512;19.104;2023-08-20T04:34:56;22.33;;;18.30;;
79204;SDS011;68632;47.512;19.104;2023-08-20T04:35:58;21.70;;;18.13;;
79204;SDS011;68632;47.512;19.104;2023-08-20T04:37:01;21.25;;;17.55;;
79204;SDS011;68632;47.512;19.104;2023-08-20T04:38:03;20.35;;;16.83;;
79204;SDS011;68632;47.512;19.104;2023-08-20T04:39:05;20.13;;;17.05;;
79204;SDS011;68632;47.512;19.104;2023-08-20T04:40:08;20.25;;;16.52;;
79204;SDS011;68632;47.512;19.104;2023-08-20T04:41:10;19.83;;;17.58;;
79204;SDS011;68632;47.512;19.104;2023-08-20T04:42:12;18.67;;;16.60;;
79204;SDS011;68632;47.512;19.104;2023-08-20T04:43:15;20.50;;;16.15;;
79204;SDS011;68632;47.512;19.104;2023-08-20T04:44:17;19.75;;;17.00;;
79204;SDS011;68632;47.512;19.104;2023-08-20T04:45:19;18.98;;;16.95;;
79204;SDS011;68632;47.512;19.104;2023-08-20T04:46:21;19.67;;;17.67;;
79204;SDS011;68632;47.512;19.104;2023-08-20T04:47:24;21.55;;;17.48;;
79204;SDS011;68632;47.512;19.104;2023-08-20T04:48:26;19.73;;;16.67;;
79204;SDS011;68632;47.512;19.104;2023-08-20T04:49:28;17.83;;;15.40;;
79204;SDS011;68632;47.512;19.104;2023-08-20T04:50:31;18.48;;;16.10;;
79204;SDS011;68632;47.512;19.104;2023-08-20T04:51:34;20.00;;;16.67;;
79204;SDS011;68632;47.512;19.104;2023-08-20T04:52:36;18.17;;;16.27;;
79204;SDS011;68632;47.512;19.104;2023-08-20T04:53:38;21.27;;;17.98;;
79204;SDS011;68632;47.512;19.104;2023-08-20T04:54:40;20.60;;;16.88;;
79204;SDS011;68632;47.512;19.104;2023-08-20T04:55:42;28.35;;;19.10;;
79204;SDS011;68632;47.512;19.104;2023-08-20T04:56:44;18.83;;;16.77;;
79204;SDS011;68632;47.512;19.104;2023-08-20T04:57:47;20.35;;;18.05;;
79204;SDS011;68632;47.512;19.104;2023-08-20T04:58:49;19.75;;;16.98;;
79204;SDS011;68632;47.512;19.104;2023-08-20T04:59:51;19.45;;;16.67;;
79204;SDS011;68632;47.512;19.104;2023-08-20T05:00:53;22.90;;;17.23;;
79204;SDS011;68632;47.512;19.104;2023-08-20T05:01:55;22.08;;;16.02;;
79204;SDS011;68632;47.512;19.104;2023-08-20T05:02:57;19.55;;;17.23;;
79204;SDS011;68632;47.512;19.104;2023-08-20T05:04:00;23.33;;;17.38;;
79204;SDS011;68632;47.512;19.104;2023-08-20T05:05:02;18.88;;;15.52;;
79204;SDS011;68632;47.512;19.104;2023-08-20T05:06:05;19.20;;;16.58;;
79204;SDS011;68632;47.512;19.104;2023-08-20T05:07:07;23.77;;;17.10;;
79204;SDS011;68632;47.512;19.104;2023-08-20T05:08:09;20.67;;;15.57;;
79204;SDS011;68632;47.512;19.104;2023-08-20T05:09:14;19.55;;;15.45;;
79204;SDS011;68632;47.512;19.104;2023-08-20T05:10:17;18.15;;;15.90;;
79204;SDS011;68632;47.512;19.104;2023-08-20T05:11:19;20.08;;;15.98;;
79204;SDS011;68632;47.512;19.104;2023-08-20T05:12:22;18.33;;;16.40;;
79204;SDS011;68632;47.512;19.104;2023-08-20T05:13:24;17.42;;;14.82;;
79204;SDS011;68632;47.512;19.104;2023-08-20T05:14:26;18.05;;;15.15;;
79204;SDS011;68632;47.512;19.104;2023-08-20T05:15:28;23.35;;;15.65;;
79204;SDS011;68632;47.512;19.104;2023-08-20T05:16:30;17.88;;;15.30;;
79204;SDS011;68632;47.512;19.104;2023-08-20T05:17:33;18.23;;;15.40;;
79204;SDS011;68632;47.512;19.104;2023-08-20T05:18:35;18.65;;;14.95;;
79204;SDS011;68632;47.512;19.104;2023-08-20T05:19:37;24.67;;;16.58;;
79204;SDS011;68632;47.512;19.104;2023-08-20T05:20:40;17.45;;;15.50;;
79204;SDS011;68632;47.512;19.104;2023-08-20T05:21:42;17.83;;;14.88;;
79204;SDS011;68632;47.512;19.104;2023-08-20T05:22:44;17.52;;;15.70;;
79204;SDS011;68632;47.512;19.104;2023-08-20T05:23:46;19.27;;;17.38;;
79204;SDS011;68632;47.512;19.104;2023-08-20T05:24:49;17.58;;;15.32;;
79204;SDS011;68632;47.512;19.104;2023-08-20T05:25:51;16.85;;;15.13;;
79204;SDS011;68632;47.512;19.104;2023-08-20T05:27:09;17.48;;;15.60;;
79204;SDS011;68632;47.512;19.104;2023-08-20T05:28:16;16.83;;;15.10;;
79204;SDS011;68632;47.512;19.104;2023-08-20T05:29:18;19.33;;;14.75;;
79204;SDS011;68632;47.512;19.104;2023-08-20T05:30:20;16.73;;;14.90;;
79204;SDS011;68632;47.512;19.104;2023-08-20T05:31:22;16.90;;;15.00;;
79204;SDS011;68632;47.512;19.104;2023-08-20T05:32:24;16.30;;;14.52;;
79204;SDS011;68632;47.512;19.104;2023-08-20T05:33:27;20.25;;;15.65;;
79204;SDS011;68632;47.512;19.104;2023-08-20T05:34:29;19.23;;;14.65;;
79204;SDS011;68632;47.512;19.104;2023-08-20T05:35:31;18.88;;;14.35;;
79204;SDS011;68632;47.512;19.104;2023-08-20T05:36:33;18.05;;;15.60;;
79204;SDS011;68632;47.512;19.104;2023-08-20T05:37:35;20.13;;;14.73;;
79204;SDS011;68632;47.512;19.104;2023-08-20T05:38:37;17.13;;;15.32;;
79204;SDS011;68632;47.512;19.104;2023-08-20T05:39:43;17.58;;;15.45;;
79204;SDS011;68632;47.512;19.104;2023-08-20T05:40:45;16.83;;;14.15;;
79204;SDS011;68632;47.512;19.104;2023-08-20T05:41:48;18.38;;;16.02;;
79204;SDS011;68632;47.512;19.104;2023-08-20T05:42:50;16.98;;;15.05;;
79204;SDS011;68632;47.512;19.104;2023-08-20T05:43:53;18.75;;;14.98;;
79204;SDS011;68632;47.512;19.104;2023-08-20T05:44:55;16.35;;;14.75;;
79204;SDS011;68632;47.512;19.104;2023-08-20T05:45:57;16.48;;;14.60;;
79204;SDS011;68632;47.512;19.104;2023-08-20T05:46:59;18.08;;;14.57;;
79204;SDS011;68632;47.512;19.104;2023-08-20T05:48:02;17.67;;;15.88;;
79204;SDS011;68632;47.512;19.104;2023-08-20T05:49:05;17.75;;;14.45;;
79204;SDS011;68632;47.512;19.104;2023-08-20T05:50:08;16.42;;;14.00;;
79204;SDS011;68632;47.512;19.104;2023-08-20T05:51:10;16.17;;;13.68;;
79204;SDS011;68632;47.512;19.104;2023-08-20T05:52:12;16.90;;;14.07;;
79204;SDS011;68632;47.512;19.104;2023-08-20T05:53:15;14.88;;;13.27;;
79204;SDS011;68632;47.512;19.104;2023-08-20T05:54:17;15.35;;;13.75;;
79204;SDS011;68632;47.512;19.104;2023-08-20T05:55:19;14.52;;;12.80;;
79204;SDS011;68632;47.512;19.104;2023-08-20T05:56:21;14.07;;;12.68;;
79204;SDS011;68632;47.512;19.104;2023-08-20T05:57:23;17.40;;;14.18;;
79204;SDS011;68632;47.512;19.104;2023-08-20T05:58:25;16.45;;;13.35;;
79204;SDS011;68632;47.512;19.104;2023-08-20T05:59:28;14.35;;;12.85;;
79204;SDS011;68632;47.512;19.104;2023-08-20T06:00:30;17.00;;;13.23;;
79204;SDS011;68632;47.512;19.104;2023-08-20T06:01:32;16.05;;;12.70;;
79204;SDS011;68632;47.512;19.104;2023-08-20T06:02:34;16.95;;;12.65;;
79204;SDS011;68632;47.512;19.104;2023-08-20T06:03:37;16.67;;;13.75;;
79204;SDS011;68632;47.512;19.104;2023-08-20T06:04:39;14.70;;;12.93;;
79204;SDS011;68632;47.512;19.104;2023-08-20T06:05:41;15.18;;;12.68;;
79204;SDS011;68632;47.512;19.104;2023-08-20T06:06:43;17.08;;;12.95;;
79204;SDS011;68632;47.512;19.104;2023-08-20T06:07:46;16.08;;;13.25;;
79204;SDS011;68632;47.512;19.104;2023-08-20T06:08:48;13.77;;;12.38;;
79204;SDS011;68632;47.512;19.104;2023-08-20T06:10:07;15.40;;;12.05;;
79204;SDS011;68632;47.512;19.104;2023-08-20T06:11:10;15.75;;;12.60;;
79204;SDS011;68632;47.512;19.104;2023-08-20T06:12:12;15.63;;;13.90;;
79204;SDS011;68632;47.512;19.104;2023-08-20T06:13:14;15.50;;;12.10;;